Thursday, November 23, 2017, 6:18 PM GMT
Back to Local

CYQM, Moncton, N. B.

Location: , , Canada Lat: 46.117
Local Time: 6:18 PM GMT (18:18 GMT) Lon: -64.683
Time Zone: GMT Elev: 232 ft

Show me the last for .
Show Coded

Time T Td Feel RH Dir Speed Gust Alt SLP Vis Weather Sky Remarks
2017-11-23 18:00 32 21 18 63 250° 21 29 29.73 29.75 15 FEW020 SCT240 None
2017-11-23 17:00 32 23 17 68 250° 22 31 29.73 29.74 15 FEW020 SCT240 None
2017-11-23 16:00 32 25 18 74 270° 20 28 29.70 29.72 15 FEW020 FEW160 None
2017-11-23 15:00 32 27 18 80 270° 20 26 29.70 29.71 15 FEW022 FEW160 None
2017-11-23 14:00 32 27 17 80 260° 21 32 29.67 29.68 15 SCT021 SCT160 Pressure rising rapidly
2017-11-23 13:00 32 27 17 80 260° 22 32 29.63 29.65 15 BKN018 Pressure rising rapidly
2017-11-23 12:00 32 28 17 86 280° 24 32 29.57 29.59 15 BKN016 None
2017-11-23 11:48 32 30 17 92 280° 22 35 29.57 29.58 15 OVC018 Pressure rising rapidly
2017-11-23 11:20 34 30 20 86 270° 26 32 29.53 29.54 15 SCT006 BKN013 OVC046 Pressure rising rapidly
2017-11-23 11:00 34 30 19 86 280° 24 37 29.51 29.52 15 -SN BKN006 BKN016 OVC046 Pressure rising rapidly
2017-11-23 10:54 34 30 19 86 280° 21 37 29.51 29.52 15 -SN FEW006 SCT016 BKN046 Pressure rising rapidly
2017-11-23 10:00 34 32 19 93 280° 23 33 29.45 29.46 1 -SN OVC006 None
2017-11-23 09:00 34 32 20 93 290° 22 32 29.40 29.41 1 -SN OVC005 Pressure rising rapidly
2017-11-23 08:00 34 32 21 93 310° 16 26 29.36 29.37 1 -SN OVC005 None
2017-11-23 07:50 34 32 21 93 310° 18 26 29.36 29.37 1 -SN VV012 BKN004 None
2017-11-23 07:37 36 34 23 93 320° 21 28 29.36 29.37 8 -SN BKN007 OVC032 None
2017-11-23 07:14 36 36 22 100 330° 20 31 29.37 29.38 8 -RA BKN006 OVC015 Pressure falling rapidly
2017-11-23 07:00 37 36 25 93 330° 20 29 29.38 29.39 3 -RA BR BKN006 OVC014 None
2017-11-23 06:52 37 36 25 93 330° 21 30 29.39 29.40 3 -RA BR BKN006 OVC014 None
2017-11-23 06:00 37 37 24 100 340° 25 35 29.38 29.39 2 RA BR OVC005 None
2017-11-23 05:32 39 37 27 93 340° 26 35 29.38 29.39 2 RA BR OVC005 Pressure falling rapidly
2017-11-23 05:21 39 37 27 93 350° 23 31 29.39 29.40 5 RA BR OVC006 Pressure falling rapidly
2017-11-23 05:00 37 37 25 100 350° 22 30 29.43 29.44 1 +RA BR OVC005 Pressure falling rapidly
2017-11-23 04:34 37 37 25 100 350° 21 28 29.49 29.49 1 RA BR OVC005 Pressure falling rapidly
2017-11-23 04:00 39 37 30 93 340° 18 - 29.53 29.54 1 RA BR OVC004 None
2017-11-23 03:45 39 37 28 93 350° 23 29 29.52 29.53 1 RA BR OVC004 None
2017-11-23 03:06 41 41 29 100 340° 24 32 29.56 29.57 1 +RA BR OVC004 None
2017-11-23 03:00 43 41 33 93 330° 26 - 29.56 29.57 1 RA BR BKN004 OVC030 None
2017-11-23 02:43 54 52 - 93 110° 5 - 29.55 29.56 2 -RA BR BKN005 BKN025 OVC040 None
2017-11-23 02:32 54 52 - 93 120° 7 - 29.56 29.57 2 -RA BR FEW006 BKN014 OVC035 Pressure falling rapidly
2017-11-23 02:15 54 54 - 100 140° 9 - 29.57 29.58 10 RA FEW007 SCT026 OVC062 Pressure falling rapidly
2017-11-23 02:00 54 52 - 93 150° 13 - 29.59 29.60 12 -RA FEW007 OVC068 None
2017-11-23 01:00 52 52 - 100 160° 13 - 29.65 29.66 12 -RA FEW008 FEW014 SCT028 BKN058 OVC085 None
2017-11-23 00:00 48 48 - 100 - Calm - 29.70 29.71 12 -RA BKN009 BKN014 OVC058 None
2017-11-22 23:00 48 46 45 93 70° 7 - 29.74 29.75 12 -RA BKN012 OVC062 OVC088 Pressure falling rapidly
2017-11-22 22:00 48 46 46 93 50° 6 - 29.80 29.81 12 -RA FEW009 OVC019 Pressure falling rapidly
2017-11-22 21:31 50 48 49 93 140° 3 - 29.82 29.83 12 -RA BKN014 OVC020 Pressure falling rapidly
2017-11-22 21:00 50 48 49 93 180° 3 - 29.85 29.86 12 -RA SCT014 BKN026 None
2017-11-22 20:00 50 46 46 87 150° 12 - 29.88 29.89 12 -RA SCT041 BKN052 BKN062 None
2017-11-22 19:05 52 45 - 76 150° 9 - 29.90 29.91 12 -RA FEW064 BKN074 BKN220 None
2017-11-22 19:00 54 45 - 71 140° 9 - 29.91 29.92 15 BKN074 BKN085 BKN220 None

Support USWX by starting your Amazon purchase here.